Time;durP1;ratioP1;P1;durP2;ratioP2;P2;SDS_P1;SDS_P2;PMS_P1;PMS_P2;Temp;Humidity;BMP_temperature;BMP_pressure;BME280_temperature;BME280_humidity;BME280_pressure;Samples;Min_cycle;Max_cycle;Signal;HPM_P1;HPM_P2
2022/12/09 00:01:12;;;;;;;39.65;23.65;;;4.50;99.90;;;;;;5053251;28;20378;-70
2022/12/09 00:03:37;;;;;;;37.13;23.38;;;4.50;99.90;;;;;;5053590;28;20029;-69
2022/12/09 00:06:19;;;;;;;34.75;21.75;;;4.50;99.90;;;;;;5052772;28;20025;-69
2022/12/09 00:08:45;;;;;;;39.65;24.48;;;4.50;99.90;;;;;;5052530;28;20076;-70
2022/12/09 00:11:11;;;;;;;35.03;22.30;;;4.50;99.90;;;;;;5053138;28;20199;-69
2022/12/09 00:13:36;;;;;;;35.85;21.92;;;4.50;99.90;;;;;;5053746;28;20129;-69
2022/12/09 00:16:11;;;;;;;35.60;21.52;;;4.50;99.90;;;;;;5052889;28;20854;-70
2022/12/09 00:18:37;;;;;;;32.38;20.33;;;4.50;99.90;;;;;;5053072;28;20033;-69
2022/12/09 00:21:26;;;;;;;39.78;22.02;;;4.50;99.90;;;;;;5052553;28;20061;-70
2022/12/09 00:23:53;;;;;;;34.65;21.50;;;4.50;99.90;;;;;;5052493;28;20043;-70
2022/12/09 00:26:20;;;;;;;31.95;20.70;;;4.60;99.90;;;;;;5052929;28;20025;-70
2022/12/09 00:28:47;;;;;;;30.83;20.70;;;4.60;99.90;;;;;;5051903;28;20397;-72
2022/12/09 00:31:14;;;;;;;33.40;20.38;;;4.60;99.90;;;;;;5052630;28;20021;-70
2022/12/09 00:33:40;;;;;;;28.05;18.23;;;4.60;99.90;;;;;;5052461;28;20031;-70
2022/12/09 00:36:11;;;;;;;26.48;16.20;;;4.60;99.90;;;;;;5051751;28;20044;-70
2022/12/09 00:38:37;;;;;;;22.73;15.95;;;4.60;99.90;;;;;;5052605;28;20029;-69
2022/12/09 00:41:03;;;;;;;25.45;16.35;;;4.50;99.90;;;;;;5052378;28;20032;-70
2022/12/09 00:43:29;;;;;;;23.27;13.65;;;4.50;99.90;;;;;;5052618;28;20029;-69
2022/12/09 00:45:55;;;;;;;16.48;11.30;;;4.50;99.90;;;;;;5052315;28;20021;-70
2022/12/09 00:48:21;;;;;;;19.20;12.23;;;4.50;99.90;;;;;;5052780;28;20120;-69
2022/12/09 00:50:47;;;;;;;17.27;11.38;;;4.40;99.90;;;;;;5052277;28;20462;-70
2022/12/09 00:53:12;;;;;;;17.13;12.02;;;4.40;99.90;;;;;;5051653;28;20036;-69
2022/12/09 00:55:38;;;;;;;18.30;12.48;;;4.40;99.90;;;;;;5052275;28;20104;-69
2022/12/09 00:58:04;;;;;;;17.90;11.50;;;4.40;99.90;;;;;;5051663;28;20067;-69
2022/12/09 01:00:30;;;;;;;16.58;11.50;;;4.40;99.90;;;;;;5051067;28;20421;-68
2022/12/09 01:02:56;;;;;;;19.08;11.57;;;4.40;99.90;;;;;;5051309;28;20028;-70
2022/12/09 01:05:22;;;;;;;16.95;11.27;;;4.40;99.90;;;;;;5052691;28;20025;-70
2022/12/09 01:07:48;;;;;;;15.90;11.52;;;4.30;99.90;;;;;;5052139;28;20044;-71
2022/12/09 01:10:14;;;;;;;15.13;10.73;;;4.30;99.90;;;;;;5052213;28;20037;-69
2022/12/09 01:12:41;;;;;;;16.27;11.40;;;4.30;99.90;;;;;;5052412;28;20025;-69
2022/12/09 01:15:08;;;;;;;16.98;10.82;;;4.40;99.90;;;;;;5051719;28;20200;-69
2022/12/09 01:17:36;;;;;;;16.30;11.60;;;4.40;99.90;;;;;;5052363;28;20060;-69
2022/12/09 01:20:02;;;;;;;17.17;11.63;;;4.40;99.90;;;;;;5051637;28;20055;-71
2022/12/09 01:22:28;;;;;;;16.00;10.93;;;4.40;99.90;;;;;;5052310;28;20026;-69
2022/12/09 01:24:54;;;;;;;15.30;11.05;;;4.40;99.90;;;;;;5051888;28;20025;-69
2022/12/09 01:27:20;;;;;;;15.65;10.70;;;4.40;99.90;;;;;;5052145;28;20110;-69
2022/12/09 01:29:45;;;;;;;14.48;10.23;;;4.30;99.90;;;;;;5051677;28;20079;-69
2022/12/09 01:32:11;;;;;;;14.90;10.68;;;4.40;99.90;;;;;;5051685;28;20021;-69
2022/12/09 01:34:36;;;;;;;17.05;10.82;;;4.40;99.90;;;;;;5050956;28;20032;-69
2022/12/09 01:37:02;;;;;;;15.05;10.52;;;4.40;99.90;;;;;;5051911;28;20048;-70
2022/12/09 01:39:28;;;;;;;14.57;11.00;;;4.40;99.90;;;;;;5051941;28;20029;-69
2022/12/09 01:41:53;;;;;;;14.80;10.63;;;4.40;99.90;;;;;;5051368;28;20501;-68
2022/12/09 01:44:24;;;;;;;15.75;10.55;;;4.30;99.90;;;;;;5051919;28;20381;-68
2022/12/09 01:46:54;;;;;;;16.80;11.43;;;4.30;99.90;;;;;;5054470;28;20028;-70
2022/12/09 01:49:24;;;;;;;13.00;9.88;;;4.30;99.90;;;;;;5055921;28;20131;-69
2022/12/09 01:52:08;;;;;;;13.63;10.18;;;4.30;99.90;;;;;;5055576;28;20031;-70
2022/12/09 01:54:34;;;;;;;18.25;10.27;;;4.30;99.90;;;;;;5055748;28;20051;-69
2022/12/09 01:57:00;;;;;;;16.88;10.40;;;4.30;99.90;;;;;;5055345;28;20029;-68
2022/12/09 01:59:27;;;;;;;15.77;10.52;;;4.30;99.90;;;;;;5055821;28;20033;-70
2022/12/09 02:01:57;;;;;;;14.45;9.77;;;4.30;99.90;;;;;;5055479;28;20029;-70
2022/12/09 02:04:23;;;;;;;15.65;10.27;;;4.30;99.90;;;;;;5055789;28;20025;-70
2022/12/09 02:06:49;;;;;;;15.48;10.10;;;4.30;99.90;;;;;;5055552;28;20051;-69
2022/12/09 02:09:15;;;;;;;13.93;9.77;;;4.30;99.90;;;;;;5055210;28;20036;-68
2022/12/09 02:12:10;;;;;;;14.10;10.27;;;4.30;99.90;;;;;;5055570;28;20033;-69
2022/12/09 02:15:03;;;;;;;13.82;9.50;;;4.30;99.90;;;;;;5055100;28;20029;-69
2022/12/09 02:17:51;;;;;;;13.68;10.15;;;4.30;99.90;;;;;;5035727;28;20025;-69
2022/12/09 02:20:39;;;;;;;16.13;10.35;;;4.40;99.90;;;;;;5029850;28;20125;-70
2022/12/09 02:23:24;;;;;;;15.38;10.00;;;4.40;99.90;;;;;;5034887;28;20028;-68
2022/12/09 02:26:00;;;;;;;16.25;10.27;;;4.40;99.90;;;;;;5035136;28;20482;-70
2022/12/09 02:28:32;;;;;;;15.15;10.65;;;4.40;99.90;;;;;;5035094;28;20034;-70
2022/12/09 02:31:16;;;;;;;15.75;11.20;;;4.40;99.90;;;;;;5035094;28;20474;-70
2022/12/09 02:34:12;;;;;;;16.88;11.55;;;4.40;99.90;;;;;;5035194;28;20056;-69
2022/12/09 02:37:03;;;;;;;16.60;10.70;;;4.40;99.90;;;;;;5035446;28;20054;-70
2022/12/09 02:39:37;;;;;;;17.50;11.63;;;4.40;99.90;;;;;;5029353;28;20045;-70
2022/12/09 02:42:05;;;;;;;16.58;11.48;;;4.40;99.90;;;;;;5034854;28;20057;-70
2022/12/09 02:44:32;;;;;;;18.13;12.10;;;4.40;99.90;;;;;;5034947;28;20018;-70
2022/12/09 02:46:58;;;;;;;19.98;12.73;;;4.40;99.90;;;;;;5034232;28;20466;-70
2022/12/09 02:49:27;;;;;;;22.38;14.30;;;4.40;99.90;;;;;;5034922;28;20025;-68
2022/12/09 02:51:53;;;;;;;25.52;16.50;;;4.40;99.90;;;;;;5034932;28;20033;-68
2022/12/09 02:54:20;;;;;;;28.17;18.27;;;4.40;99.90;;;;;;5033818;28;20034;-69
2022/12/09 02:56:54;;;;;;;32.25;19.65;;;4.40;99.90;;;;;;5034211;28;20455;-69
2022/12/09 02:59:20;;;;;;;35.85;20.63;;;4.40;99.90;;;;;;5033994;28;20026;-70
2022/12/09 03:02:09;;;;;;;37.80;21.10;;;4.40;99.90;;;;;;5034746;28;20097;-69
2022/12/09 03:04:39;;;;;;;38.13;21.02;;;4.40;99.90;;;;;;5030095;28;20040;-69
2022/12/09 03:07:19;;;;;;;32.78;20.42;;;4.40;99.90;;;;;;5054198;28;20029;-69
2022/12/09 03:09:50;;;;;;;36.90;21.57;;;4.40;99.90;;;;;;5054555;28;20044;-69
2022/12/09 03:12:19;;;;;;;40.67;24.05;;;4.40;99.90;;;;;;5054498;28;20335;-70
2022/12/09 03:14:50;;;;;;;36.50;21.67;;;4.40;99.90;;;;;;5054404;28;20036;-69
2022/12/09 03:17:34;;;;;;;38.90;22.73;;;4.40;99.90;;;;;;5054029;28;20231;-69
2022/12/09 03:20:12;;;;;;;41.40;22.77;;;4.40;99.90;;;;;;5054046;28;20032;-69
2022/12/09 03:22:41;;;;;;;37.30;22.05;;;4.40;99.90;;;;;;5054146;28;20373;-69
2022/12/09 03:25:32;;;;;;;43.05;22.23;;;4.40;99.90;;;;;;5053592;28;20020;-69
2022/12/09 03:28:09;;;;;;;34.60;21.02;;;4.40;99.90;;;;;;5053815;28;20033;-69
2022/12/09 03:30:39;;;;;;;37.15;22.17;;;4.40;99.90;;;;;;5054259;28;20091;-70
2022/12/09 03:33:06;;;;;;;37.08;23.20;;;4.40;99.90;;;;;;5051807;28;20029;-70
2022/12/09 03:35:38;;;;;;;31.83;19.40;;;4.40;99.90;;;;;;5053601;28;20033;-69
2022/12/09 03:38:08;;;;;;;32.30;18.70;;;4.40;99.90;;;;;;5053730;28;20029;-69
2022/12/09 03:40:35;;;;;;;30.40;18.33;;;4.30;99.90;;;;;;5054128;28;20029;-68
2022/12/09 03:43:13;;;;;;;31.15;17.58;;;4.30;99.90;;;;;;5053667;28;20028;-69
2022/12/09 03:45:39;;;;;;;27.58;15.45;;;4.20;99.90;;;;;;5053483;28;20021;-69
2022/12/09 03:48:05;;;;;;;25.85;16.23;;;4.20;99.90;;;;;;5053530;28;20033;-69
2022/12/09 03:50:51;;;;;;;30.40;17.02;;;4.10;99.90;;;;;;5054000;28;20074;-69
2022/12/09 03:53:26;;;;;;;23.35;14.77;;;4.00;99.90;;;;;;5053565;28;20025;-69
2022/12/09 03:56:10;;;;;;;27.83;15.90;;;4.10;99.90;;;;;;5053473;28;20470;-69
2022/12/09 03:58:38;;;;;;;26.58;16.80;;;4.10;99.90;;;;;;5053498;28;20029;-69
2022/12/09 04:01:05;;;;;;;21.08;14.70;;;4.10;99.90;;;;;;5052431;28;20056;-70
2022/12/09 04:03:31;;;;;;;25.17;15.25;;;4.10;99.90;;;;;;5053038;28;20029;-70
2022/12/09 04:05:57;;;;;;;25.08;15.73;;;4.10;99.90;;;;;;5052783;28;20048;-70
2022/12/09 04:08:23;;;;;;;21.73;14.88;;;4.10;99.90;;;;;;5052179;28;20036;-69
2022/12/09 04:10:48;;;;;;;24.15;16.33;;;4.10;99.90;;;;;;5052464;28;20025;-70
2022/12/09 04:13:14;;;;;;;24.20;15.13;;;4.00;99.90;;;;;;5052085;28;20105;-70
2022/12/09 04:15:39;;;;;;;24.10;15.27;;;4.00;99.90;;;;;;5053163;28;20029;-70
2022/12/09 04:18:05;;;;;;;21.85;14.88;;;4.10;99.90;;;;;;5052274;28;20029;-69
2022/12/09 04:20:31;;;;;;;23.60;14.63;;;4.00;99.90;;;;;;5052447;28;20064;-69
2022/12/09 04:22:56;;;;;;;23.25;15.75;;;4.10;99.90;;;;;;5052627;28;20099;-69
2022/12/09 04:25:22;;;;;;;22.83;14.05;;;4.00;99.90;;;;;;5052253;28;20025;-69
2022/12/09 04:27:47;;;;;;;21.33;14.63;;;4.10;99.90;;;;;;5052664;28;20032;-69
2022/12/09 04:30:13;;;;;;;21.63;14.98;;;4.10;99.90;;;;;;5052138;28;20033;-68
2022/12/09 04:32:39;;;;;;;26.67;15.30;;;4.10;99.90;;;;;;5052616;28;20444;-69
2022/12/09 04:35:05;;;;;;;24.75;14.43;;;4.10;99.90;;;;;;5052141;28;20474;-70
2022/12/09 04:37:31;;;;;;;23.63;14.40;;;4.10;99.90;;;;;;5052386;28;20417;-69
2022/12/09 04:39:57;;;;;;;22.02;13.70;;;4.10;99.90;;;;;;5052669;28;20143;-68
2022/12/09 04:42:22;;;;;;;20.85;13.60;;;4.10;99.90;;;;;;5052017;28;20033;-69
2022/12/09 04:44:48;;;;;;;23.60;14.43;;;4.10;99.90;;;;;;5052671;28;20025;-69
2022/12/09 04:47:13;;;;;;;21.05;13.30;;;4.00;99.90;;;;;;5052546;28;20051;-70
2022/12/09 04:49:39;;;;;;;22.58;14.60;;;4.00;99.90;;;;;;5052899;28;20086;-70
2022/12/09 04:52:05;;;;;;;22.15;14.25;;;4.00;99.90;;;;;;5052429;28;20029;-70
2022/12/09 04:54:31;;;;;;;25.00;15.23;;;4.00;99.90;;;;;;5052627;28;20533;-70
2022/12/09 04:56:57;;;;;;;25.48;14.85;;;4.00;99.90;;;;;;5052627;28;20481;-70
2022/12/09 04:59:23;;;;;;;23.63;14.82;;;4.00;99.90;;;;;;5051910;28;20025;-70
2022/12/09 05:01:48;;;;;;;23.15;15.57;;;4.00;99.90;;;;;;5052153;28;20021;-70
2022/12/09 05:04:14;;;;;;;24.50;14.77;;;4.00;99.90;;;;;;5051525;28;20025;-70
2022/12/09 05:06:40;;;;;;;25.27;15.68;;;4.00;99.90;;;;;;5052377;28;20082;-70
2022/12/09 05:09:10;;;;;;;24.92;15.93;;;4.00;99.90;;;;;;5052001;28;20112;-70
2022/12/09 05:11:35;;;;;;;21.35;14.30;;;4.00;99.90;;;;;;5051762;28;20473;-70
2022/12/09 05:14:01;;;;;;;22.45;15.15;;;3.90;99.90;;;;;;5051935;28;20021;-70
2022/12/09 05:16:27;;;;;;;22.05;14.48;;;3.90;99.90;;;;;;5051823;28;20017;-70
2022/12/09 05:18:52;;;;;;;24.42;15.73;;;3.80;99.90;;;;;;5052087;28;20063;-69
2022/12/09 05:21:19;;;;;;;27.65;17.15;;;3.80;99.90;;;;;;5053913;28;20029;-68
2022/12/09 05:23:46;;;;;;;26.15;15.93;;;3.80;99.90;;;;;;5056135;28;20044;-69
2022/12/09 05:26:14;;;;;;;29.42;16.90;;;3.70;99.90;;;;;;5055707;28;20462;-70
2022/12/09 05:28:40;;;;;;;26.17;16.02;;;3.70;99.90;;;;;;5056072;28;20041;-69
2022/12/09 05:31:09;;;;;;;26.67;15.88;;;3.70;99.90;;;;;;5055882;28;20358;-72
2022/12/09 05:33:35;;;;;;;28.15;16.60;;;3.70;99.90;;;;;;5056085;28;20060;-69
2022/12/09 05:36:01;;;;;;;29.60;17.33;;;3.70;99.90;;;;;;5054336;28;20131;-70
2022/12/09 05:38:26;;;;;;;29.48;17.33;;;3.60;99.90;;;;;;5054406;28;20049;-68
2022/12/09 05:40:52;;;;;;;27.38;17.13;;;3.70;99.90;;;;;;5054912;28;20029;-69
2022/12/09 05:43:18;;;;;;;27.00;16.70;;;3.70;99.90;;;;;;5055686;28;20025;-70
2022/12/09 05:45:44;;;;;;;25.17;15.90;;;3.70;99.90;;;;;;5056077;28;20445;-70
2022/12/09 05:48:10;;;;;;;22.83;15.10;;;3.70;99.90;;;;;;5055363;28;20108;-71
2022/12/09 05:50:35;;;;;;;28.27;16.88;;;3.70;99.90;;;;;;5056036;28;20096;-70
2022/12/09 05:53:01;;;;;;;26.73;17.02;;;3.70;99.90;;;;;;5055902;28;20358;-70
2022/12/09 05:55:27;;;;;;;36.65;20.38;;;3.60;99.90;;;;;;5055279;28;20424;-70
2022/12/09 05:57:53;;;;;;;27.00;17.17;;;3.60;99.90;;;;;;5055836;28;20017;-70
2022/12/09 06:00:21;;;;;;;25.98;16.38;;;3.60;99.90;;;;;;5055238;28;20032;-70
2022/12/09 06:02:46;;;;;;;31.95;18.30;;;3.60;99.90;;;;;;5055822;28;20025;-70
2022/12/09 06:05:12;;;;;;;29.52;17.20;;;3.50;99.90;;;;;;5054726;28;20150;-71
2022/12/09 06:07:38;;;;;;;28.98;17.92;;;3.50;99.90;;;;;;5055083;28;20023;-70
2022/12/09 06:10:04;;;;;;;28.17;16.92;;;3.50;99.90;;;;;;5055488;28;20037;-68
2022/12/09 06:12:30;;;;;;;27.35;17.00;;;3.50;99.90;;;;;;5055073;28;20035;-70
2022/12/09 06:14:56;;;;;;;26.40;17.10;;;3.50;99.90;;;;;;5055368;28;20017;-70
2022/12/09 06:17:21;;;;;;;29.10;18.25;;;3.50;99.90;;;;;;5054410;28;20078;-70
2022/12/09 06:19:47;;;;;;;30.83;18.27;;;3.50;99.90;;;;;;5055482;28;20025;-70
2022/12/09 06:22:12;;;;;;;30.17;18.48;;;3.50;99.90;;;;;;5054404;28;20035;-70
2022/12/09 06:24:38;;;;;;;31.35;18.15;;;3.50;99.90;;;;;;5054834;28;20024;-69
2022/12/09 06:27:04;;;;;;;26.88;17.42;;;3.50;99.90;;;;;;5055440;28;20446;-68
2022/12/09 06:29:29;;;;;;;28.52;17.70;;;3.40;99.90;;;;;;5054862;28;20099;-69
2022/12/09 06:31:55;;;;;;;26.65;17.05;;;3.40;99.90;;;;;;5055003;28;20096;-70
2022/12/09 06:34:21;;;;;;;28.00;17.73;;;3.40;99.90;;;;;;5054336;28;20108;-70
2022/12/09 06:36:46;;;;;;;29.92;17.80;;;3.40;99.90;;;;;;5054862;28;20084;-70
2022/12/09 06:39:13;;;;;;;29.08;17.88;;;3.40;99.90;;;;;;5054458;28;20044;-70
2022/12/09 06:41:41;;;;;;;30.52;18.15;;;3.40;99.90;;;;;;5054826;28;20418;-70
2022/12/09 06:44:07;;;;;;;30.38;18.10;;;3.40;99.90;;;;;;5054793;28;20037;-70
2022/12/09 06:46:33;;;;;;;26.88;16.95;;;3.50;99.90;;;;;;5054435;28;20025;-69
2022/12/09 06:48:58;;;;;;;28.67;17.80;;;3.50;99.90;;;;;;5054154;28;20052;-70
2022/12/09 06:51:24;;;;;;;27.15;17.83;;;3.40;99.90;;;;;;5054258;28;20083;-70
2022/12/09 06:53:50;;;;;;;28.25;17.50;;;3.50;99.90;;;;;;5054594;28;20112;-70
2022/12/09 06:56:17;;;;;;;27.58;17.48;;;3.50;99.90;;;;;;5054076;28;20361;-71
2022/12/09 06:58:44;;;;;;;26.40;18.25;;;3.50;99.90;;;;;;5054685;28;20041;-71
2022/12/09 07:01:13;;;;;;;25.38;16.98;;;3.50;99.90;;;;;;5054434;28;20433;-70
2022/12/09 07:03:40;;;;;;;27.33;17.45;;;3.40;99.90;;;;;;5054306;28;20021;-69
2022/12/09 07:06:07;;;;;;;28.48;18.05;;;3.40;99.90;;;;;;5054564;28;20053;-70
2022/12/09 07:08:33;;;;;;;30.58;16.77;;;3.50;99.90;;;;;;5053700;28;20345;-70
2022/12/09 07:10:59;;;;;;;25.33;17.17;;;3.50;99.90;;;;;;5054071;28;20132;-70
2022/12/09 07:13:24;;;;;;;24.85;17.23;;;3.50;99.90;;;;;;5053974;28;20112;-70
2022/12/09 07:15:50;;;;;;;24.42;16.50;;;3.50;99.90;;;;;;5054583;28;20086;-70
2022/12/09 07:18:16;;;;;;;30.55;16.65;;;3.50;99.90;;;;;;5053642;28;20040;-69
2022/12/09 07:20:42;;;;;;;32.10;18.45;;;3.50;99.90;;;;;;5054028;28;20393;-69
2022/12/09 07:23:07;;;;;;;32.28;18.05;;;3.50;99.90;;;;;;5052847;28;20025;-69
2022/12/09 07:25:34;;;;;;;26.85;17.92;;;3.50;99.90;;;;;;5053690;28;20123;-69
2022/12/09 07:28:00;;;;;;;33.20;19.17;;;3.50;99.90;;;;;;5053957;28;20366;-69
2022/12/09 07:30:25;;;;;;;27.67;18.55;;;3.50;99.90;;;;;;5053510;28;20037;-70
2022/12/09 07:32:51;;;;;;;29.90;18.67;;;3.50;99.90;;;;;;5052776;28;20029;-69
2022/12/09 07:35:17;;;;;;;33.85;18.85;;;3.50;99.90;;;;;;5053430;28;20436;-69
2022/12/09 07:37:42;;;;;;;28.90;18.13;;;3.50;99.90;;;;;;5053917;28;20086;-70
2022/12/09 07:40:08;;;;;;;33.72;19.67;;;3.50;99.90;;;;;;5053873;28;20036;-69
2022/12/09 07:42:34;;;;;;;30.83;19.30;;;3.50;99.90;;;;;;5053040;28;20535;-69
2022/12/09 07:45:00;;;;;;;32.63;18.65;;;3.50;99.90;;;;;;5052959;28;20060;-69
2022/12/09 07:47:26;;;;;;;33.22;19.80;;;3.50;99.90;;;;;;5051811;28;20060;-70
2022/12/09 07:49:51;;;;;;;33.88;19.55;;;3.50;99.90;;;;;;5053723;28;20029;-69
2022/12/09 07:52:17;;;;;;;33.58;19.10;;;3.60;99.90;;;;;;5053330;28;20063;-71
2022/12/09 07:54:42;;;;;;;28.77;18.00;;;3.60;99.90;;;;;;5053350;28;20100;-70
2022/12/09 07:57:08;;;;;;;32.08;18.98;;;3.60;99.90;;;;;;5053501;28;20446;-70
2022/12/09 07:59:34;;;;;;;31.50;18.95;;;3.60;99.90;;;;;;5051643;28;20029;-70
2022/12/09 08:02:02;;;;;;;30.80;18.63;;;3.60;99.90;;;;;;5053419;28;20154;-70
2022/12/09 08:04:27;;;;;;;34.95;20.38;;;3.60;99.90;;;;;;5052939;28;20040;-70
2022/12/09 08:06:53;;;;;;;33.45;18.48;;;3.60;99.90;;;;;;5053622;28;20024;-70
2022/12/09 08:09:19;;;;;;;35.97;19.70;;;3.60;99.90;;;;;;5052986;28;20118;-71
2022/12/09 08:11:44;;;;;;;35.85;20.50;;;3.60;99.90;;;;;;5052078;28;20025;-71
2022/12/09 08:14:11;;;;;;;44.63;22.05;;;3.60;99.90;;;;;;5053356;28;20087;-71
2022/12/09 08:16:37;;;;;;;37.78;20.67;;;3.60;99.90;;;;;;5052439;28;20024;-70
2022/12/09 08:19:03;;;;;;;37.35;20.65;;;3.60;99.90;;;;;;5053128;28;20480;-70
2022/12/09 08:21:31;;;;;;;37.67;19.90;;;3.60;99.90;;;;;;5052660;28;20025;-68
2022/12/09 08:23:59;;;;;;;37.22;20.65;;;3.60;99.90;;;;;;5053248;28;20120;-70
2022/12/09 08:26:30;;;;;;;36.63;21.20;;;3.60;99.90;;;;;;5052689;28;20060;-69
2022/12/09 08:28:55;;;;;;;38.10;20.63;;;3.60;99.90;;;;;;5053033;28;20033;-69
2022/12/09 08:31:23;;;;;;;42.72;21.88;;;3.60;99.90;;;;;;5052583;28;20488;-70
2022/12/09 08:33:50;;;;;;;40.40;20.58;;;3.60;99.90;;;;;;5052967;28;20110;-70
2022/12/09 08:36:18;;;;;;;39.65;20.02;;;3.60;99.90;;;;;;5052833;28;20053;-70
2022/12/09 08:38:45;;;;;;;36.85;20.65;;;3.70;99.90;;;;;;5052995;28;20446;-69
2022/12/09 08:41:15;;;;;;;37.35;21.33;;;3.70;99.90;;;;;;5052822;28;20111;-70
2022/12/09 08:43:42;;;;;;;39.70;20.65;;;3.70;99.90;;;;;;5052205;28;20024;-69
2022/12/09 08:46:08;;;;;;;39.65;21.95;;;3.70;99.90;;;;;;5051152;28;20064;-70
2022/12/09 08:48:38;;;;;;;40.05;21.70;;;3.70;99.90;;;;;;5051911;28;20174;-70
2022/12/09 08:51:05;;;;;;;43.73;22.27;;;3.70;99.90;;;;;;5052384;28;20032;-70
2022/12/09 08:53:31;;;;;;;43.08;22.77;;;3.70;99.90;;;;;;5052219;28;20017;-70
2022/12/09 08:55:56;;;;;;;46.35;23.27;;;3.70;99.90;;;;;;5051760;28;20025;-70
2022/12/09 08:58:22;;;;;;;46.42;23.73;;;3.70;99.90;;;;;;5052401;28;20029;-71
2022/12/09 09:00:48;;;;;;;45.15;22.98;;;3.70;99.90;;;;;;5050721;28;20108;-69
2022/12/09 09:03:14;;;;;;;48.00;24.40;;;3.80;99.90;;;;;;5052496;28;20082;-71
2022/12/09 09:05:39;;;;;;;46.55;22.95;;;3.80;99.90;;;;;;5051820;28;20025;-70
2022/12/09 09:08:05;;;;;;;48.42;23.30;;;3.80;99.90;;;;;;5052009;28;20398;-70
2022/12/09 09:10:31;;;;;;;49.83;24.85;;;3.80;99.90;;;;;;5051953;28;20071;-69
2022/12/09 09:12:56;;;;;;;50.30;24.85;;;3.80;99.90;;;;;;5052293;28;20405;-70
2022/12/09 09:15:22;;;;;;;56.55;25.58;;;3.80;99.90;;;;;;5051900;28;20032;-71
2022/12/09 09:17:48;;;;;;;51.17;24.90;;;3.90;99.90;;;;;;5052529;28;20048;-69
2022/12/09 09:20:13;;;;;;;55.40;26.15;;;3.90;99.90;;;;;;5052084;28;20021;-69
2022/12/09 09:22:39;;;;;;;59.55;25.80;;;3.90;99.90;;;;;;5051884;28;20107;-69
2022/12/09 09:25:05;;;;;;;57.00;25.80;;;3.90;99.90;;;;;;5051992;28;20049;-69
2022/12/09 09:27:30;;;;;;;59.33;26.45;;;3.90;99.90;;;;;;5052242;28;20060;-69
2022/12/09 09:29:56;;;;;;;59.55;26.35;;;3.90;99.90;;;;;;5052030;28;20033;-71
2022/12/09 09:32:22;;;;;;;58.25;26.00;;;4.00;99.90;;;;;;5052258;28;20025;-69
2022/12/09 09:34:49;;;;;;;58.00;27.42;;;4.00;99.90;;;;;;5051499;28;20445;-69
2022/12/09 09:37:15;;;;;;;53.50;26.52;;;4.00;99.90;;;;;;5052154;28;20049;-70
2022/12/09 09:39:41;;;;;;;51.45;26.42;;;4.00;99.90;;;;;;5051905;28;20048;-69
2022/12/09 09:42:14;;;;;;;51.33;24.77;;;4.00;99.90;;;;;;5052221;28;20445;-70
2022/12/09 09:44:49;;;;;;;49.45;23.50;;;4.00;99.90;;;;;;5052031;28;20472;-69
2022/12/09 09:47:18;;;;;;;47.15;23.70;;;4.00;99.90;;;;;;5052577;28;20025;-70
2022/12/09 09:49:49;;;;;;;42.00;21.88;;;4.00;99.90;;;;;;5051557;28;20215;-69
2022/12/09 09:52:21;;;;;;;46.50;22.75;;;4.00;99.90;;;;;;5052334;28;20462;-70
2022/12/09 09:54:47;;;;;;;40.50;22.90;;;4.00;99.90;;;;;;5051514;28;20036;-70
2022/12/09 09:57:50;;;;;;;44.15;22.13;;;4.00;99.90;;;;;;5051935;28;20021;-69
2022/12/09 10:00:24;;;;;;;48.17;22.17;;;4.10;99.90;;;;;;5052330;28;20079;-70
2022/12/09 10:03:08;;;;;;;37.53;21.17;;;4.10;99.90;;;;;;5051538;28;20035;-69
2022/12/09 10:05:52;;;;;;;37.55;20.60;;;4.10;99.90;;;;;;5050042;28;20418;-70
2022/12/09 10:08:24;;;;;;;37.70;20.13;;;4.10;99.90;;;;;;5054896;28;20021;-69
2022/12/09 10:11:02;;;;;;;36.85;18.95;;;4.10;99.90;;;;;;5055292;28;20068;-70
2022/12/09 10:13:42;;;;;;;38.47;19.05;;;4.10;99.90;;;;;;5054062;28;20085;-71
2022/12/09 10:16:22;;;;;;;36.72;19.08;;;4.20;99.90;;;;;;5055592;28;20078;-70
2022/12/09 10:19:26;;;;;;;39.05;20.25;;;4.20;99.90;;;;;;5053526;28;20025;-70
2022/12/09 10:21:53;;;;;;;34.60;18.33;;;4.30;99.90;;;;;;5044106;28;20470;-69
2022/12/09 10:24:32;;;;;;;33.65;19.08;;;4.30;99.90;;;;;;5055393;28;20021;-70
2022/12/09 10:27:13;;;;;;;35.78;18.42;;;4.30;99.90;;;;;;5055374;28;20382;-70
2022/12/09 10:30:00;;;;;;;31.23;17.33;;;4.30;99.90;;;;;;5054785;28;20041;-69
2022/12/09 10:32:29;;;;;;;32.58;18.40;;;4.30;99.90;;;;;;5054896;28;20064;-71
2022/12/09 10:34:55;;;;;;;37.40;19.27;;;4.30;99.90;;;;;;5055213;28;20037;-69
2022/12/09 10:37:23;;;;;;;37.08;18.13;;;4.40;99.90;;;;;;5055170;28;20048;-69
2022/12/09 10:39:57;;;;;;;31.48;17.27;;;4.40;99.90;;;;;;5054662;28;20044;-69
2022/12/09 10:45:10;;;;;;;31.08;17.02;;;4.50;99.90;;;;;;5055047;28;20488;-70
2022/12/09 10:47:36;;;;;;;29.45;16.55;;;4.50;99.90;;;;;;5054564;28;20036;-70
2022/12/09 10:50:03;;;;;;;27.70;16.88;;;4.50;99.90;;;;;;5054997;28;20037;-69
2022/12/09 10:52:37;;;;;;;26.58;15.18;;;4.60;99.90;;;;;;5054570;28;20044;-71
2022/12/09 10:55:03;;;;;;;27.23;14.70;;;4.60;99.90;;;;;;5055067;28;20552;-69
2022/12/09 10:57:28;;;;;;;26.30;14.45;;;4.70;99.90;;;;;;5055061;28;20104;-69
2022/12/09 10:59:59;;;;;;;27.40;15.35;;;4.70;99.90;;;;;;5054343;28;20104;-69
2022/12/09 11:02:27;;;;;;;23.98;14.35;;;4.80;99.90;;;;;;5054646;28;20154;-69
2022/12/09 11:04:52;;;;;;;25.48;14.43;;;4.80;99.90;;;;;;5052913;28;20029;-69
2022/12/09 11:07:21;;;;;;;26.73;14.93;;;4.80;99.90;;;;;;5054024;28;20052;-71
2022/12/09 11:09:55;;;;;;;23.23;13.20;;;4.80;99.90;;;;;;5053945;28;20116;-69
2022/12/09 11:12:27;;;;;;;23.58;12.82;;;4.90;99.90;;;;;;5054463;28;20104;-70
2022/12/09 11:15:11;;;;;;;23.15;12.77;;;4.90;99.90;;;;;;5053922;28;20025;-70
2022/12/09 11:17:39;;;;;;;22.45;12.95;;;4.90;99.90;;;;;;5053693;28;20021;-70
2022/12/09 11:20:05;;;;;;;26.02;11.77;;;4.90;99.90;;;;;;5053476;28;20151;-70
2022/12/09 11:22:42;;;;;;;23.55;12.75;;;5.00;99.90;;;;;;5054094;28;20108;-72
2022/12/09 11:25:11;;;;;;;21.92;12.30;;;5.00;99.90;;;;;;5054204;28;20028;-71
2022/12/09 11:28:02;;;;;;;23.63;12.52;;;5.00;99.90;;;;;;5053732;28;20039;-70
2022/12/09 11:30:49;;;;;;;25.13;13.88;;;5.00;99.90;;;;;;5034273;28;20071;-70
2022/12/09 11:33:24;;;;;;;22.13;12.00;;;5.00;99.90;;;;;;5053862;28;20108;-70
2022/12/09 11:35:52;;;;;;;22.30;11.45;;;5.00;99.90;;;;;;5053517;28;20416;-70
2022/12/09 11:38:32;;;;;;;21.73;12.13;;;5.00;99.90;;;;;;5053867;28;20029;-70
2022/12/09 11:41:05;;;;;;;24.60;12.97;;;5.10;99.90;;;;;;5053704;28;20025;-69
2022/12/09 11:43:41;;;;;;;22.55;12.38;;;5.00;99.90;;;;;;5053927;28;20033;-70
2022/12/09 11:46:28;;;;;;;21.17;12.65;;;5.10;99.90;;;;;;5054065;28;20029;-70
2022/12/09 11:48:57;;;;;;;21.83;12.80;;;5.00;99.90;;;;;;5052917;28;20485;-70
2022/12/09 11:51:28;;;;;;;25.70;13.40;;;5.10;99.90;;;;;;5053382;28;20055;-70
2022/12/09 11:54:01;;;;;;;21.55;13.40;;;5.10;99.90;;;;;;5053265;28;20033;-70
2022/12/09 11:56:28;;;;;;;24.60;13.57;;;5.10;99.90;;;;;;5053698;28;20175;-69
2022/12/09 11:59:05;;;;;;;22.02;12.70;;;5.20;99.90;;;;;;5052976;28;20386;-69
2022/12/09 12:02:04;;;;;;;21.52;13.40;;;5.20;99.90;;;;;;5053674;28;20032;-70
2022/12/09 12:04:58;;;;;;;21.73;12.73;;;5.20;99.90;;;;;;5053178;28;20452;-69
2022/12/09 12:07:38;;;;;;;22.63;12.55;;;5.20;99.90;;;;;;5053256;28;20060;-70
2022/12/09 12:10:16;;;;;;;22.83;12.52;;;5.20;99.90;;;;;;5052888;28;20104;-70
2022/12/09 12:12:53;;;;;;;22.23;12.77;;;5.30;99.90;;;;;;5052886;28;20033;-69
2022/12/09 12:15:33;;;;;;;21.58;11.38;;;5.30;99.90;;;;;;5053339;28;20047;-70
2022/12/09 12:18:02;;;;;;;17.92;11.23;;;5.30;99.90;;;;;;5052588;28;20435;-69
2022/12/09 12:20:51;;;;;;;18.77;12.02;;;5.30;99.90;;;;;;5053043;28;20045;-69
2022/12/09 12:23:39;;;;;;;21.30;11.48;;;5.30;99.90;;;;;;5053006;28;20163;-69
2022/12/09 12:26:24;;;;;;;20.95;11.27;;;5.30;99.90;;;;;;5053230;28;20093;-69
2022/12/09 12:28:59;;;;;;;21.00;11.48;;;5.30;99.90;;;;;;5052630;28;20078;-69
2022/12/09 12:32:09;;;;;;;16.60;10.90;;;5.30;99.90;;;;;;5052873;28;20044;-69
2022/12/09 12:34:52;;;;;;;20.67;11.18;;;5.30;99.90;;;;;;5052747;28;20024;-70
2022/12/09 12:37:38;;;;;;;20.63;10.80;;;5.30;99.90;;;;;;5052504;28;20049;-70
2022/12/09 12:40:13;;;;;;;19.60;10.52;;;5.30;99.90;;;;;;5052984;28;20029;-69
2022/12/09 12:46:41;;;;;;;23.02;10.55;;;5.30;99.90;;;;;;5030558;28;20100;-69
2022/12/09 12:49:43;;;;;;;17.95;10.05;;;5.30;99.90;;;;;;5030353;28;20035;-70
2022/12/09 12:52:38;;;;;;;18.75;10.45;;;5.30;99.90;;;;;;5052780;28;20101;-70
2022/12/09 12:55:10;;;;;;;15.63;10.13;;;5.30;99.90;;;;;;5051791;28;20131;-70
2022/12/09 12:58:05;;;;;;;17.70;11.35;;;5.30;99.90;;;;;;5052520;28;20115;-69
2022/12/09 13:00:59;;;;;;;21.75;10.75;;;5.30;99.90;;;;;;5052374;28;20398;-70